Terminal Aerodrome Forecast
Issued by NWS

Home | Current Version | Previous Version | Text Only | Print | Product List | Glossary On
Versions: 1 2 3 4 5 6 7 8 9 10 11 12 13
000
FTUS43 KAPX 192325
TAFAPN
TAF
KAPN 192325Z 2000/2024 34004KT P6SM SCT180
     FM200200 VRB03KT P6SM BKN110
     FM201500 12007KT P6SM BKN150
     FM202100 13010G18KT P6SM BKN150=

USA.gov is the U.S. government's official web portal to all federal, state and local government web resources and services.